createdAt,value
2022-12-31T07:26:20.466Z,18.70
2022-12-31T07:27:54.083Z,18.60
2022-12-31T07:29:11.943Z,18.60
2022-12-31T07:30:20.618Z,18.70
2022-12-31T07:31:37.634Z,18.60
2022-12-31T07:33:21.723Z,18.70
2022-12-31T07:34:38.843Z,18.70
2022-12-31T07:35:57.044Z,18.70
2022-12-31T07:37:08.869Z,18.70
2022-12-31T07:38:20.596Z,18.80
2022-12-31T07:39:34.013Z,18.70
2022-12-31T07:40:51.847Z,18.70
2022-12-31T07:42:03.873Z,18.80
2022-12-31T07:43:18.176Z,18.80
2022-12-31T07:44:52.139Z,18.90
2022-12-31T07:46:12.845Z,18.80
2022-12-31T07:47:22.349Z,18.80
2022-12-31T07:48:27.373Z,18.90
2022-12-31T07:49:34.225Z,18.80
2022-12-31T07:50:36.795Z,18.80
2022-12-31T07:51:40.626Z,18.80
2022-12-31T07:52:44.322Z,18.90
2022-12-31T07:53:46.511Z,18.90
2022-12-31T07:54:50.167Z,18.90
2022-12-31T07:55:56.272Z,18.90
2022-12-31T07:57:00.840Z,18.90
2022-12-31T07:58:09.173Z,18.90
2022-12-31T07:59:34.402Z,18.90
2022-12-31T08:00:37.705Z,19.00
2022-12-31T08:01:49.633Z,19.00
2022-12-31T08:03:14.749Z,19.00
2022-12-31T08:04:28.467Z,19.00
2022-12-31T08:05:40.465Z,19.00
2022-12-31T08:06:53.114Z,19.10
2022-12-31T08:08:07.229Z,19.10
2022-12-31T08:09:27.528Z,19.10
2022-12-31T08:10:40.028Z,19.10
2022-12-31T08:11:51.043Z,19.20
2022-12-31T08:13:00.464Z,19.20
2022-12-31T08:14:04.435Z,19.20
2022-12-31T08:15:13.385Z,19.30
2022-12-31T08:16:17.097Z,19.30
2022-12-31T08:17:20.671Z,19.30
2022-12-31T08:18:24.170Z,19.30
2022-12-31T08:19:28.766Z,19.30
2022-12-31T08:20:35.478Z,19.30
2022-12-31T08:21:54.014Z,19.30
2022-12-31T08:23:25.881Z,19.40
2022-12-31T08:24:40.385Z,19.40
2022-12-31T08:26:04.438Z,19.40
2022-12-31T08:27:19.959Z,19.40
2022-12-31T08:28:43.662Z,19.40
2022-12-31T08:30:00.389Z,19.40
2022-12-31T08:31:08.979Z,19.40
2022-12-31T08:32:21.956Z,19.30
2022-12-31T08:33:31.655Z,19.30
2022-12-31T08:34:45.242Z,19.30
2022-12-31T08:36:01.436Z,19.30
2022-12-31T08:37:12.085Z,19.40
2022-12-31T08:38:28.728Z,19.40
2022-12-31T08:40:03.861Z,19.40
2022-12-31T08:41:22.226Z,19.40
2022-12-31T08:42:35.184Z,19.40
2022-12-31T08:43:50.622Z,19.40
2022-12-31T08:45:07.822Z,19.40
2022-12-31T08:46:21.074Z,19.40
2022-12-31T08:47:38.291Z,19.40
2022-12-31T08:48:44.801Z,19.40
2022-12-31T08:49:48.529Z,19.40
2022-12-31T08:50:52.097Z,19.40
2022-12-31T08:51:55.749Z,19.40
2022-12-31T08:52:58.654Z,19.40
2022-12-31T08:54:02.230Z,19.40
2022-12-31T08:55:05.187Z,19.40
2022-12-31T08:56:22.314Z,19.40
2022-12-31T08:57:33.568Z,19.40
2022-12-31T08:58:47.667Z,19.40
2022-12-31T09:00:01.603Z,19.50
2022-12-31T09:01:07.982Z,19.50
2022-12-31T09:02:48.160Z,19.50
2022-12-31T09:04:11.002Z,19.60
2022-12-31T09:05:23.044Z,19.60
2022-12-31T09:06:33.330Z,19.50
2022-12-31T09:07:40.418Z,19.50
2022-12-31T09:08:51.411Z,19.50
2022-12-31T09:10:04.058Z,19.50
2022-12-31T09:11:19.111Z,19.50
2022-12-31T09:12:34.028Z,19.50
2022-12-31T09:14:01.059Z,19.40
2022-12-31T09:15:15.776Z,19.40
2022-12-31T09:16:25.660Z,19.40
2022-12-31T09:17:43.838Z,19.50
2022-12-31T09:18:46.925Z,19.40
2022-12-31T09:19:49.659Z,19.40
2022-12-31T09:20:53.159Z,19.50
2022-12-31T09:21:56.824Z,19.50
2022-12-31T09:23:00.491Z,19.40
2022-12-31T09:24:09.181Z,19.40
2022-12-31T09:25:14.908Z,19.40
2022-12-31T09:26:41.604Z,19.40
2022-12-31T09:27:55.109Z,19.40
2022-12-31T09:29:09.504Z,19.40
2022-12-31T09:30:16.169Z,19.40
2022-12-31T09:31:29.120Z,19.40
2022-12-31T09:32:46.285Z,19.40
2022-12-31T09:33:56.589Z,19.40
2022-12-31T09:35:11.401Z,19.40
2022-12-31T09:36:22.578Z,19.40
2022-12-31T09:37:39.380Z,19.40
2022-12-31T09:38:52.421Z,19.40
2022-12-31T09:40:01.790Z,19.30
2022-12-31T09:41:17.426Z,19.30
2022-12-31T09:42:55.800Z,19.30
2022-12-31T09:44:47.716Z,19.30
2022-12-31T09:46:28.762Z,19.30
2022-12-31T09:48:12.024Z,19.30
2022-12-31T09:49:54.966Z,19.30
2022-12-31T09:51:19.152Z,19.40
2022-12-31T09:52:38.764Z,19.40
2022-12-31T09:54:23.235Z,19.40
2022-12-31T09:55:36.083Z,19.40
2022-12-31T09:56:47.516Z,19.40
2022-12-31T09:58:07.272Z,19.40
2022-12-31T09:59:22.783Z,19.40
2022-12-31T10:00:38.857Z,19.40
2022-12-31T10:01:58.219Z,19.40
2022-12-31T10:03:41.189Z,19.50
2022-12-31T10:05:02.632Z,19.50
2022-12-31T10:06:21.252Z,19.50
2022-12-31T10:07:41.186Z,19.60
2022-12-31T10:09:04.760Z,19.50
2022-12-31T10:10:16.352Z,19.50
2022-12-31T10:11:32.343Z,19.60
2022-12-31T10:13:11.018Z,19.60
2022-12-31T10:14:33.703Z,19.60
2022-12-31T10:16:11.412Z,19.60
2022-12-31T10:17:30.835Z,19.60
2022-12-31T10:19:04.973Z,19.60
2022-12-31T10:20:28.212Z,19.60
2022-12-31T10:21:49.822Z,19.60
2022-12-31T10:23:19.226Z,19.60
2022-12-31T10:24:52.129Z,19.70
2022-12-31T10:26:13.430Z,19.70
2022-12-31T10:27:29.016Z,19.70
2022-12-31T10:28:46.723Z,19.70
2022-12-31T10:30:01.921Z,19.80
2022-12-31T10:31:16.041Z,19.80
2022-12-31T10:32:27.804Z,19.80
2022-12-31T10:33:44.966Z,19.80
2022-12-31T10:34:57.048Z,19.80
2022-12-31T10:36:10.363Z,19.70
2022-12-31T10:37:18.689Z,19.80
2022-12-31T10:38:31.987Z,19.80
2022-12-31T10:39:46.573Z,19.80
2022-12-31T10:41:32.177Z,19.80
2022-12-31T10:43:03.988Z,19.80
2022-12-31T10:44:49.120Z,19.90
2022-12-31T10:46:36.135Z,19.90
2022-12-31T10:48:14.436Z,19.90
2022-12-31T10:49:50.240Z,19.90
2022-12-31T10:51:36.838Z,19.90
2022-12-31T10:53:30.341Z,19.90
2022-12-31T10:55:05.111Z,20.00
2022-12-31T10:56:48.307Z,19.90
2022-12-31T10:58:18.971Z,19.90
2022-12-31T10:59:58.444Z,20.00
2022-12-31T11:01:14.659Z,20.00
2022-12-31T11:02:59.285Z,20.00
2022-12-31T11:04:27.505Z,20.10
2022-12-31T11:05:58.948Z,20.10
2022-12-31T11:07:30.422Z,20.20
2022-12-31T11:09:04.517Z,20.20
2022-12-31T11:10:42.219Z,20.20
2022-12-31T11:11:53.790Z,20.20
2022-12-31T11:13:42.418Z,20.20
2022-12-31T11:15:05.869Z,20.30
2022-12-31T11:16:48.888Z,20.40
2022-12-31T11:18:07.759Z,20.40
2022-12-31T11:19:25.804Z,20.40
2022-12-31T11:20:55.923Z,20.40
2022-12-31T11:22:24.803Z,20.40
2022-12-31T11:23:41.892Z,20.40
2022-12-31T11:25:05.892Z,20.40
2022-12-31T11:26:23.213Z,20.40
2022-12-31T11:27:49.624Z,20.50
2022-12-31T11:29:15.173Z,20.50
2022-12-31T11:30:24.514Z,20.50
2022-12-31T11:31:47.089Z,20.50
2022-12-31T11:33:08.058Z,20.50
2022-12-31T11:34:36.380Z,20.50
2022-12-31T11:36:01.336Z,20.50
2022-12-31T11:37:23.028Z,20.50
2022-12-31T11:38:31.198Z,20.50
2022-12-31T11:41:45.111Z,20.50
2022-12-31T11:43:35.440Z,20.50
2022-12-31T11:46:56.483Z,20.60
2022-12-31T11:48:31.583Z,20.60
2022-12-31T11:49:57.092Z,20.60
2022-12-31T11:51:44.191Z,20.50
2022-12-31T11:53:41.746Z,20.50
2022-12-31T11:59:52.279Z,20.60
2022-12-31T12:05:41.611Z,20.60
2022-12-31T12:08:53.634Z,20.60
2022-12-31T12:10:40.386Z,20.60
2022-12-31T12:12:53.544Z,20.60
2022-12-31T12:15:07.472Z,20.70
2022-12-31T12:16:48.317Z,20.60
2022-12-31T12:24:01.229Z,20.50
2022-12-31T12:25:08.267Z,20.50
2022-12-31T12:26:52.278Z,20.50
2022-12-31T12:27:55.751Z,20.50
2022-12-31T12:29:36.618Z,20.50
2022-12-31T12:34:49.845Z,20.40
2022-12-31T12:36:08.614Z,20.40
2022-12-31T12:37:56.140Z,20.40
2022-12-31T12:39:31.459Z,20.30
2022-12-31T12:43:42.652Z,20.40
2022-12-31T12:45:51.893Z,20.50
2022-12-31T12:47:59.182Z,20.40
2022-12-31T12:50:05.785Z,20.30
2022-12-31T12:54:34.468Z,20.40
2022-12-31T12:56:10.357Z,20.50
2022-12-31T12:58:00.750Z,20.50
2022-12-31T13:01:04.185Z,20.40
2022-12-31T13:02:06.984Z,20.40
2022-12-31T13:09:43.831Z,20.50
2022-12-31T13:11:42.187Z,20.40
2022-12-31T13:13:24.565Z,20.40
2022-12-31T13:15:20.097Z,20.40
2022-12-31T13:16:34.943Z,20.30
2022-12-31T13:18:19.804Z,20.30
2022-12-31T13:19:56.929Z,20.30
2022-12-31T13:21:23.668Z,20.30
2022-12-31T13:22:44.463Z,20.40
2022-12-31T13:24:07.133Z,20.40
2022-12-31T13:25:29.220Z,20.40
2022-12-31T13:26:55.331Z,20.50
2022-12-31T13:28:11.856Z,20.50
2022-12-31T13:29:45.921Z,20.50
2022-12-31T13:31:22.927Z,20.60
2022-12-31T13:32:47.041Z,20.60
2022-12-31T13:34:31.883Z,20.60
2022-12-31T13:35:46.747Z,20.60
2022-12-31T13:37:00.897Z,20.60
2022-12-31T13:38:12.632Z,20.50
2022-12-31T13:39:45.697Z,20.50
2022-12-31T13:41:03.485Z,20.50
2022-12-31T13:42:22.016Z,20.50
2022-12-31T13:43:38.368Z,20.40
2022-12-31T14:01:47.598Z,20.10
2022-12-31T14:03:02.747Z,20.10
2022-12-31T14:04:13.683Z,20.10
2022-12-31T14:05:24.069Z,20.10
2022-12-31T14:06:35.450Z,20.00
2022-12-31T14:07:45.868Z,20.10
2022-12-31T14:08:49.551Z,20.10
2022-12-31T14:09:51.729Z,20.10
2022-12-31T14:11:06.036Z,20.10
2022-12-31T14:12:25.569Z,20.10
2022-12-31T14:13:46.609Z,20.00
2022-12-31T14:15:00.967Z,20.00
2022-12-31T14:16:17.009Z,20.00
2022-12-31T14:17:32.992Z,20.00
2022-12-31T14:18:45.860Z,20.00
2022-12-31T14:20:03.696Z,20.00
2022-12-31T14:21:15.191Z,20.00
2022-12-31T14:22:28.501Z,20.00
2022-12-31T14:23:46.340Z,20.00
2022-12-31T14:24:51.883Z,20.00
2022-12-31T14:26:01.057Z,20.00
2022-12-31T14:27:19.737Z,20.00
2022-12-31T14:28:33.015Z,19.90
2022-12-31T14:29:43.910Z,19.90
2022-12-31T14:30:57.774Z,19.90
2022-12-31T14:32:33.375Z,19.90
2022-12-31T14:33:51.744Z,20.00
2022-12-31T14:35:06.017Z,20.00
2022-12-31T14:36:27.262Z,19.90
2022-12-31T14:37:43.743Z,20.00
2022-12-31T14:39:01.052Z,20.00
2022-12-31T14:40:20.074Z,20.00
2022-12-31T14:41:46.031Z,20.00
2022-12-31T14:43:06.774Z,20.00
2022-12-31T14:44:28.224Z,20.10
2022-12-31T14:45:47.934Z,20.10
2022-12-31T14:47:02.284Z,20.00
2022-12-31T14:48:23.340Z,20.00
2022-12-31T14:49:42.536Z,20.00
2022-12-31T14:50:47.564Z,20.00
2022-12-31T14:51:50.801Z,20.00
2022-12-31T14:52:57.404Z,20.00
2022-12-31T14:54:00.602Z,20.00
2022-12-31T14:55:23.057Z,20.10
2022-12-31T14:56:33.197Z,20.10
2022-12-31T14:58:01.590Z,20.00
2022-12-31T14:59:02.950Z,20.00
2022-12-31T15:00:25.695Z,20.00
2022-12-31T15:01:30.020Z,20.00
2022-12-31T15:02:35.018Z,20.00
2022-12-31T15:03:45.848Z,20.00
2022-12-31T15:04:48.340Z,20.00
2022-12-31T15:05:54.514Z,20.00
2022-12-31T15:07:07.951Z,20.00
2022-12-31T15:08:27.155Z,20.00
2022-12-31T15:09:52.335Z,20.00
2022-12-31T15:11:14.390Z,19.90
2022-12-31T15:12:45.866Z,19.90
2022-12-31T15:14:36.747Z,19.90
2022-12-31T15:16:09.178Z,20.00
2022-12-31T15:17:24.991Z,20.00
2022-12-31T15:18:39.290Z,20.00
2022-12-31T15:20:17.747Z,20.00
2022-12-31T15:21:46.307Z,20.00
2022-12-31T15:22:52.044Z,20.00
2022-12-31T15:23:55.055Z,20.00
2022-12-31T15:25:00.027Z,20.00
2022-12-31T15:26:05.440Z,20.00
2022-12-31T15:27:30.389Z,20.00
2022-12-31T15:28:39.279Z,20.00
2022-12-31T15:29:46.169Z,19.90
2022-12-31T15:30:51.650Z,19.90
2022-12-31T15:31:56.316Z,19.90
2022-12-31T15:33:04.285Z,19.80
2022-12-31T15:34:24.599Z,19.70
2022-12-31T15:35:32.988Z,19.70
2022-12-31T15:36:39.463Z,19.70
2022-12-31T15:37:42.095Z,19.70
2022-12-31T15:38:46.044Z,19.70
2022-12-31T15:39:49.301Z,19.60
2022-12-31T15:40:52.786Z,19.50
2022-12-31T15:43:33.773Z,19.50
2022-12-31T15:44:49.616Z,19.40
2022-12-31T15:45:56.020Z,19.40
2022-12-31T15:47:11.137Z,19.40
2022-12-31T15:48:18.681Z,19.40
2022-12-31T15:49:24.946Z,19.40
2022-12-31T15:50:31.164Z,19.40
2022-12-31T15:51:44.605Z,19.40
2022-12-31T15:52:53.107Z,19.40
2022-12-31T15:54:00.919Z,19.30
2022-12-31T15:55:09.964Z,19.30
2022-12-31T15:56:20.692Z,19.30
2022-12-31T15:57:33.481Z,19.30
2022-12-31T15:58:38.416Z,19.30
2022-12-31T15:59:42.579Z,19.30
2022-12-31T16:01:02.486Z,19.30
2022-12-31T16:02:06.333Z,19.30
2022-12-31T16:03:22.494Z,19.30
2022-12-31T16:04:28.956Z,19.30
2022-12-31T16:05:36.959Z,19.20
2022-12-31T16:06:43.722Z,19.20
2022-12-31T16:07:53.105Z,19.20
2022-12-31T16:08:56.681Z,19.20
2022-12-31T16:10:03.654Z,19.10
2022-12-31T16:11:07.812Z,19.20
2022-12-31T16:12:20.381Z,19.20
2022-12-31T16:13:26.254Z,19.20
2022-12-31T16:14:37.844Z,19.20
2022-12-31T16:15:41.848Z,19.10
2022-12-31T16:16:55.040Z,19.10
2022-12-31T16:18:04.455Z,19.10
2022-12-31T16:19:29.143Z,19.10
2022-12-31T16:20:35.639Z,19.10
2022-12-31T16:21:38.975Z,19.10
2022-12-31T16:22:42.336Z,19.10
2022-12-31T16:23:50.159Z,19.10
2022-12-31T16:25:29.182Z,19.00
2022-12-31T16:26:19.104Z,19.00
2022-12-31T16:27:25.342Z,19.00
2022-12-31T16:28:30.706Z,19.00
2022-12-31T16:29:37.916Z,19.00
2022-12-31T16:30:43.106Z,19.00
2022-12-31T16:31:48.262Z,19.10
2022-12-31T16:32:53.955Z,19.00
2022-12-31T16:34:04.787Z,19.00
2022-12-31T16:35:25.003Z,19.00
2022-12-31T16:36:29.824Z,19.00
2022-12-31T16:37:36.568Z,19.00
2022-12-31T16:38:40.531Z,19.00
2022-12-31T16:40:18.644Z,18.90
2022-12-31T16:41:24.447Z,18.90
2022-12-31T16:42:28.566Z,18.90
2022-12-31T16:43:38.272Z,18.80
2022-12-31T16:44:42.769Z,18.80
2022-12-31T16:45:46.052Z,18.80
2022-12-31T16:46:48.328Z,18.80
2022-12-31T16:47:52.114Z,18.90
2022-12-31T16:48:58.366Z,18.80
2022-12-31T16:50:07.796Z,18.90
2022-12-31T16:51:19.942Z,18.90
2022-12-31T16:52:30.999Z,18.90
2022-12-31T16:53:38.949Z,18.80
2022-12-31T16:54:46.843Z,18.90
2022-12-31T16:55:57.892Z,18.90
2022-12-31T16:57:02.356Z,18.90
2022-12-31T16:58:18.385Z,18.90
2022-12-31T16:59:34.705Z,18.80
2022-12-31T17:00:39.439Z,18.90
2022-12-31T17:01:43.279Z,18.90
2022-12-31T17:02:56.790Z,18.80
2022-12-31T17:04:03.783Z,18.80
2022-12-31T17:05:19.168Z,18.90
2022-12-31T17:06:24.268Z,18.90
2022-12-31T17:07:41.431Z,18.90
2022-12-31T17:08:46.932Z,18.90
2022-12-31T17:09:56.816Z,18.90
2022-12-31T17:11:00.019Z,18.90
2022-12-31T17:12:17.029Z,18.90
2022-12-31T17:13:29.539Z,18.90
2022-12-31T17:14:48.146Z,18.90
2022-12-31T17:15:53.280Z,18.90
2022-12-31T17:17:04.221Z,18.80
2022-12-31T17:18:08.347Z,18.80
2022-12-31T17:19:34.566Z,18.90
2022-12-31T17:20:36.800Z,18.90
2022-12-31T17:21:49.537Z,18.90
2022-12-31T17:22:57.635Z,18.90
2022-12-31T17:24:05.764Z,18.90
2022-12-31T17:25:22.426Z,18.90
2022-12-31T17:26:29.417Z,19.00
2022-12-31T17:27:33.380Z,18.90
2022-12-31T17:28:44.585Z,19.00
2022-12-31T17:29:48.332Z,19.00
2022-12-31T17:30:51.536Z,19.00
2022-12-31T17:32:01.613Z,19.00
2022-12-31T17:33:27.555Z,18.90
2022-12-31T17:34:35.100Z,18.90
2022-12-31T17:35:42.321Z,18.90
2022-12-31T17:36:58.256Z,18.90
2022-12-31T17:38:36.962Z,18.90
2022-12-31T17:39:45.611Z,18.90
2022-12-31T17:40:52.839Z,18.90
2022-12-31T17:41:58.901Z,18.80
2022-12-31T17:43:02.039Z,18.90
2022-12-31T17:44:05.824Z,18.90
2022-12-31T17:45:22.170Z,18.90
2022-12-31T17:46:27.404Z,18.90
2022-12-31T17:47:35.811Z,19.00
2022-12-31T17:48:39.168Z,18.90
2022-12-31T17:49:46.729Z,18.90
2022-12-31T17:50:50.697Z,18.80
2022-12-31T17:51:53.899Z,18.80
2022-12-31T17:53:00.417Z,18.80
2022-12-31T17:54:13.275Z,18.80
2022-12-31T17:55:16.025Z,18.80
2022-12-31T17:56:21.455Z,18.80
2022-12-31T17:57:28.871Z,18.80
2022-12-31T17:58:36.941Z,18.80
2022-12-31T17:59:40.291Z,18.80
2022-12-31T18:00:43.441Z,18.80
2022-12-31T18:01:45.901Z,18.80
2022-12-31T18:02:50.462Z,18.80
2022-12-31T18:03:53.708Z,18.80
2022-12-31T18:04:56.906Z,18.80
2022-12-31T18:05:59.068Z,18.80
2022-12-31T18:07:02.311Z,18.80
2022-12-31T18:08:05.059Z,18.80
2022-12-31T18:09:09.814Z,18.80
2022-12-31T18:10:15.541Z,18.80
2022-12-31T18:11:21.212Z,18.80
2022-12-31T18:12:23.439Z,18.80
2022-12-31T18:13:28.508Z,18.80
2022-12-31T18:14:31.754Z,18.80
2022-12-31T18:15:34.937Z,18.80
2022-12-31T18:16:37.137Z,18.80
2022-12-31T18:17:40.401Z,18.80
2022-12-31T18:18:45.398Z,18.80
2022-12-31T18:20:04.678Z,18.80
2022-12-31T18:21:17.194Z,18.80
2022-12-31T18:22:20.598Z,18.80
2022-12-31T18:23:27.700Z,18.80
2022-12-31T18:24:31.167Z,18.80
2022-12-31T18:25:34.312Z,18.80
2022-12-31T18:26:36.551Z,18.90
2022-12-31T18:27:42.012Z,18.90
2022-12-31T18:28:45.840Z,18.80
2022-12-31T18:29:49.092Z,18.80
2022-12-31T18:30:52.856Z,18.80
2022-12-31T18:31:55.318Z,18.80
2022-12-31T18:32:58.453Z,18.80
2022-12-31T18:34:00.576Z,18.80
2022-12-31T18:35:04.185Z,18.80
2022-12-31T18:36:12.313Z,18.80
2022-12-31T18:37:21.754Z,18.90
2022-12-31T18:38:24.476Z,18.80
2022-12-31T18:39:27.625Z,18.80
2022-12-31T18:40:33.030Z,18.80
2022-12-31T18:41:42.099Z,18.80
2022-12-31T18:42:45.279Z,18.80
2022-12-31T18:43:48.582Z,18.80
2022-12-31T18:44:51.743Z,18.80
2022-12-31T18:45:53.976Z,18.70
2022-12-31T18:46:57.185Z,18.70
2022-12-31T18:47:59.350Z,18.70
2022-12-31T18:49:02.450Z,18.70
2022-12-31T18:50:06.413Z,18.60
2022-12-31T18:51:14.384Z,18.60
2022-12-31T18:52:19.376Z,18.60
2022-12-31T18:53:24.461Z,18.60
2022-12-31T18:54:26.577Z,18.60
2022-12-31T18:55:38.843Z,18.60
2022-12-31T18:56:47.628Z,18.50
2022-12-31T18:57:52.013Z,18.50
2022-12-31T18:58:55.199Z,18.50
2022-12-31T18:59:57.481Z,18.50
2022-12-31T19:01:00.817Z,18.50
2022-12-31T19:02:04.288Z,18.50
2022-12-31T19:03:06.614Z,18.50
2022-12-31T19:04:14.771Z,18.50
2022-12-31T19:05:26.042Z,18.50
2022-12-31T19:06:29.575Z,18.50
2022-12-31T19:07:32.760Z,18.50
2022-12-31T19:08:34.938Z,18.50
2022-12-31T19:09:46.694Z,18.50
2022-12-31T19:10:53.740Z,18.50
2022-12-31T19:11:55.897Z,18.50
2022-12-31T19:12:59.073Z,18.50
2022-12-31T19:14:02.277Z,18.50
2022-12-31T19:15:23.810Z,18.50
2022-12-31T19:16:27.210Z,18.50
2022-12-31T19:17:29.519Z,18.50
2022-12-31T19:18:32.756Z,18.60
2022-12-31T19:19:35.883Z,18.60
2022-12-31T19:20:41.059Z,18.50
2022-12-31T19:21:43.947Z,18.50
2022-12-31T19:22:47.072Z,18.50
2022-12-31T19:23:51.746Z,18.50
2022-12-31T19:24:53.859Z,18.50
2022-12-31T19:25:58.407Z,18.50
2022-12-31T19:27:02.642Z,18.50
2022-12-31T19:28:14.177Z,18.50
2022-12-31T19:29:20.177Z,18.50
2022-12-31T19:30:26.292Z,18.60
2022-12-31T19:31:29.525Z,18.60
2022-12-31T19:32:31.707Z,18.60
2022-12-31T19:33:34.964Z,18.60
2022-12-31T19:34:37.062Z,18.60
2022-12-31T19:35:41.494Z,18.60
2022-12-31T19:36:45.436Z,18.60
2022-12-31T19:37:49.684Z,18.60
2022-12-31T19:38:52.806Z,18.60
2022-12-31T19:39:54.923Z,18.70
2022-12-31T19:40:59.930Z,18.70
2022-12-31T19:42:03.088Z,18.60
2022-12-31T19:43:05.177Z,18.60
2022-12-31T19:44:09.930Z,18.60
2022-12-31T19:45:16.421Z,18.60
2022-12-31T19:46:20.595Z,18.60
2022-12-31T19:47:22.764Z,18.60
2022-12-31T19:48:32.633Z,18.60
2022-12-31T19:49:35.145Z,18.60
2022-12-31T19:50:38.213Z,18.60
2022-12-31T19:51:41.683Z,18.60
2022-12-31T19:52:47.101Z,18.50
2022-12-31T19:53:50.809Z,18.50
2022-12-31T19:54:52.925Z,18.50
2022-12-31T19:55:56.062Z,18.50
2022-12-31T19:56:59.559Z,18.50
2022-12-31T19:58:02.624Z,18.50
2022-12-31T19:59:06.698Z,18.50
2022-12-31T20:00:12.180Z,18.60
2022-12-31T20:01:21.055Z,18.50
2022-12-31T20:02:23.446Z,18.50
2022-12-31T20:03:27.338Z,18.50
2022-12-31T20:04:29.467Z,18.50
2022-12-31T20:05:32.573Z,18.60
2022-12-31T20:06:35.720Z,18.60
2022-12-31T20:07:39.111Z,18.60
2022-12-31T20:08:43.820Z,18.50
2022-12-31T20:09:45.983Z,18.50
2022-12-31T20:10:49.151Z,18.60
2022-12-31T20:11:52.296Z,18.60
2022-12-31T20:12:56.768Z,18.60
